Time;durP1;ratioP1;P1;durP2;ratioP2;P2;SDS_P1;SDS_P2;PMS_P1;PMS_P2;Temp;Humidity;BMP_temperature;BMP_pressure;BME280_temperature;BME280_humidity;BME280_pressure;Samples;Min_cycle;Max_cycle;Signal;HPM_P1;HPM_P2
2022/07/24 00:09:53;;;;;;;3.42;2.17;;;;;;;16.78;84.98;101821.09;20841687;28;20060;-60
2022/07/24 00:20:15;;;;;;;4.38;2.47;;;;;;;16.80;85.14;101808.66;20833082;28;20041;-60
2022/07/24 00:30:37;;;;;;;8.23;2.72;;;;;;;16.71;86.04;101804.06;20843521;28;20045;-60
2022/07/24 00:40:59;;;;;;;4.00;2.60;;;;;;;16.49;87.67;101798.69;20827047;28;20069;-60
2022/07/24 00:51:21;;;;;;;4.35;2.30;;;;;;;16.51;88.19;101790.72;20840636;28;20508;-60
2022/07/24 01:01:43;;;;;;;5.75;2.67;;;;;;;16.49;85.90;101793.44;20823429;28;20487;-60
2022/07/24 01:12:05;;;;;;;4.95;3.30;;;;;;;16.27;87.39;101789.00;20836131;28;20144;-61
2022/07/24 01:22:27;;;;;;;4.80;3.17;;;;;;;16.43;86.43;101772.84;20840260;28;20402;-60
2022/07/24 01:32:49;;;;;;;4.07;2.92;;;;;;;16.22;87.17;101772.69;20833284;28;21603;-61
2022/07/24 01:43:11;;;;;;;4.13;3.00;;;;;;;16.29;86.55;101768.66;20834191;28;20045;-60
2022/07/24 01:53:32;;;;;;;6.97;2.80;;;;;;;15.94;88.25;101773.00;20849197;28;20045;-60
2022/07/24 02:03:54;;;;;;;6.13;2.70;;;;;;;16.11;88.00;101762.09;20850394;28;20481;-59
2022/07/24 02:14:16;;;;;;;7.30;3.08;;;;;;;15.95;89.15;101761.53;20845421;28;20052;-60
2022/07/24 02:24:37;;;;;;;5.15;2.90;;;;;;;15.85;88.69;101757.91;20843583;28;20072;-60
2022/07/24 02:34:59;;;;;;;8.07;2.92;;;;;;;15.95;87.93;101756.28;20840573;28;20076;-62
2022/07/24 02:45:27;;;;;;;2.97;2.70;;;;;;;15.77;89.18;101749.69;20834042;28;20048;-60
2022/07/24 02:55:49;;;;;;;6.55;2.88;;;;;;;15.79;89.03;101747.78;20833381;28;20148;-60
2022/07/24 03:06:10;;;;;;;4.32;2.58;;;;;;;15.57;89.64;101751.09;20840679;28;20044;-60
2022/07/24 03:16:32;;;;;;;4.60;2.42;;;;;;;15.88;87.48;101747.13;20833778;28;20058;-59
2022/07/24 03:26:59;;;;;;;7.35;2.80;;;;;;;15.75;90.57;101735.81;20841319;28;20100;-59
2022/07/24 03:37:20;;;;;;;3.08;2.80;;;;;;;15.69;89.87;101738.91;20839579;28;20063;-59
2022/07/24 03:47:42;;;;;;;5.35;3.00;;;;;;;15.76;89.34;101719.09;20843398;28;20068;-60
2022/07/24 03:58:04;;;;;;;3.97;2.63;;;;;;;15.91;88.76;101720.63;20837759;28;20124;-59
2022/07/24 04:08:25;;;;;;;6.13;2.75;;;;;;;15.80;89.02;101723.19;20839111;28;20103;-59
2022/07/24 04:18:47;;;;;;;3.92;2.72;;;;;;;15.94;87.98;101725.66;20832836;28;20406;-61
2022/07/24 04:29:08;;;;;;;5.18;2.80;;;;;;;16.14;88.26;101717.16;20842384;28;20054;-59
2022/07/24 04:39:30;;;;;;;3.50;2.58;;;;;;;16.26;87.62;101711.00;20836694;28;20096;-59
2022/07/24 04:49:52;;;;;;;4.60;2.60;;;;;;;16.52;85.28;101701.06;20844326;28;20056;-60
2022/07/24 05:00:15;;;;;;;2.40;2.10;;;;;;;16.69;86.64;101690.13;20834922;28;20068;-59
2022/07/24 05:10:36;;;;;;;9.45;2.38;;;;;;;16.83;86.35;101689.91;20843134;28;20393;-59
2022/07/24 05:20:58;;;;;;;2.92;2.08;;;;;;;17.16;85.10;101674.13;20847463;28;20049;-59
2022/07/24 05:31:19;;;;;;;2.78;2.28;;;;;;;17.38;83.32;101689.13;20855802;28;20624;-60
2022/07/24 05:41:41;;;;;;;2.80;1.83;;;;;;;17.56;83.62;101684.03;20855105;28;20600;-60
2022/07/24 05:52:03;;;;;;;4.63;2.40;;;;;;;17.73;82.32;101674.81;20863004;28;20084;-60
2022/07/24 06:02:30;;;;;;;3.38;2.05;;;;;;;18.07;81.82;101679.00;20852145;28;20041;-60
2022/07/24 06:12:52;;;;;;;5.18;2.10;;;;;;;18.45;79.89;101670.47;20854070;28;20056;-60
2022/07/24 06:23:14;;;;;;;4.20;2.70;;;;;;;18.74;78.77;101678.56;20857072;28;20049;-60
2022/07/24 06:33:42;;;;;;;2.55;2.00;;;;;;;19.16;76.22;101667.84;20851538;28;20494;-60
2022/07/24 06:44:04;;;;;;;4.18;2.25;;;;;;;19.23;79.37;101645.16;20848715;28;20056;-61
2022/07/24 06:54:25;;;;;;;2.45;2.05;;;;;;;19.84;77.34;101652.84;20835347;28;20059;-60
2022/07/24 07:04:48;;;;;;;4.35;2.50;;;;;;;20.30;75.04;101631.84;20832261;28;20048;-60
2022/07/24 07:15:11;;;;;;;4.60;2.40;;;;;;;20.37;74.86;101627.63;20849582;28;20083;-61
2022/07/24 07:25:32;;;;;;;4.78;2.28;;;;;;;20.99;72.70;101619.97;20837819;28;20072;-60
2022/07/24 07:35:54;;;;;;;5.00;2.30;;;;;;;21.40;71.52;101617.63;20854565;28;20090;-60
2022/07/24 07:46:16;;;;;;;4.97;2.70;;;;;;;21.79;68.51;101622.56;20846318;28;20090;-60
2022/07/24 07:56:37;;;;;;;4.82;2.47;;;;;;;22.21;68.54;101622.78;20850529;28;20270;-59
2022/07/24 08:06:59;;;;;;;8.15;3.22;;;;;;;22.53;65.74;101630.06;20869403;28;20084;-61
2022/07/24 08:17:20;;;;;;;2.70;2.50;;;;;;;22.96;67.17;101619.34;20842397;28;20042;-60
2022/07/24 08:27:42;;;;;;;4.15;2.95;;;;;;;23.43;63.77;101617.91;20841683;28;20057;-60
2022/07/24 08:38:05;;;;;;;8.25;3.60;;;;;;;23.78;60.85;101610.53;20835109;28;20048;-60
2022/07/24 08:48:27;;;;;;;4.38;3.35;;;;;;;23.97;60.36;101604.03;20836447;28;20037;-61
2022/07/24 08:58:48;;;;;;;3.92;3.22;;;;;;;24.29;61.15;101606.72;20842675;28;20055;-61
2022/07/24 09:09:10;;;;;;;5.18;3.30;;;;;;;24.70;58.75;101595.81;20840333;28;20053;-61
2022/07/24 09:19:47;;;;;;;4.82;3.60;;;;;;;24.97;58.73;101604.25;20840984;28;20173;-62
2022/07/24 09:30:20;;;;;;;4.90;3.20;;;;;;;25.13;59.10;101596.22;20840716;28;20060;-61
2022/07/24 09:40:49;;;;;;;7.45;3.05;;;;;;;25.60;60.25;101588.97;20824998;28;20136;-62
2022/07/24 09:51:16;;;;;;;4.95;3.95;;;;;;;25.72;56.67;101587.53;20837000;28;20037;-61
2022/07/24 10:01:38;;;;;;;5.03;3.63;;;;;;;26.21;56.63;101578.13;20832350;28;20056;-61
2022/07/24 10:12:03;;;;;;;7.63;3.65;;;;;;;26.42;56.78;101574.63;20845172;28;20053;-60
2022/07/24 10:22:36;;;;;;;7.45;4.78;;;;;;;26.59;54.48;101565.41;20841573;28;20041;-60
2022/07/24 10:32:57;;;;;;;6.13;3.72;;;;;;;26.75;52.85;101572.41;20846480;28;20042;-61
2022/07/24 10:43:21;;;;;;;4.40;3.03;;;;;;;27.08;50.76;101558.47;20846184;28;20044;-61
2022/07/24 10:53:50;;;;;;;5.15;2.95;;;;;;;27.33;49.16;101556.28;20839712;28;20082;-61
2022/07/24 11:04:23;;;;;;;6.70;3.28;;;;;;;27.67;47.54;101528.69;20839078;28;20535;-62
2022/07/24 11:14:45;;;;;;;4.72;2.92;;;;;;;27.98;46.97;101539.88;20823454;28;20049;-61
2022/07/24 11:25:13;;;;;;;5.65;2.60;;;;;;;28.14;43.98;101525.34;20842450;28;20049;-61
2022/07/24 11:35:37;;;;;;;3.20;2.13;;;;;;;28.55;40.59;101525.25;20838479;28;20045;-61
2022/07/24 11:45:58;;;;;;;4.00;2.22;;;;;;;28.26;41.74;101523.81;20832680;28;20413;-62
2022/07/24 11:56:20;;;;;;;2.15;1.95;;;;;;;28.56;39.86;101513.47;20839861;28;20445;-60
2022/07/24 12:06:44;;;;;;;2.15;1.80;;;;;;;29.21;39.94;101516.47;20842355;28;20056;-63
2022/07/24 12:17:06;;;;;;;2.88;1.90;;;;;;;28.88;40.49;101486.00;20840694;28;20045;-61
2022/07/24 12:27:42;;;;;;;2.75;1.58;;;;;;;29.11;39.89;101489.16;20838330;28;20053;-62
2022/07/24 12:38:04;;;;;;;2.85;1.85;;;;;;;28.65;42.09;101477.41;20851174;28;20026;-61
2022/07/24 12:48:25;;;;;;;2.10;1.60;;;;;;;28.42;43.14;101460.75;20835717;28;20092;-62
2022/07/24 12:59:02;;;;;;;1.98;1.65;;;;;;;28.50;41.53;101462.44;20834501;28;20080;-62
2022/07/24 13:09:27;;;;;;;3.28;2.00;;;;;;;28.48;43.71;101459.97;20830892;28;20048;-64
2022/07/24 13:19:51;;;;;;;1.95;1.70;;;;;;;28.38;44.21;101449.81;20854495;28;20154;-61
2022/07/24 13:30:13;;;;;;;2.47;1.88;;;;;;;28.77;44.14;101438.22;20839097;28;20049;-62
2022/07/24 13:40:35;;;;;;;1.70;1.45;;;;;;;28.84;44.35;101422.16;20847353;28;20053;-62
2022/07/24 13:50:57;;;;;;;2.60;1.98;;;;;;;28.85;44.08;101413.06;20849314;28;20067;-61
2022/07/24 14:01:19;;;;;;;2.95;2.00;;;;;;;29.06;44.62;101394.94;20849648;28;20067;-63
2022/07/24 14:11:55;;;;;;;4.97;1.88;;;;;;;28.87;45.50;101387.66;20849925;28;20099;-61
2022/07/24 14:22:16;;;;;;;2.17;1.67;;;;;;;28.98;44.49;101381.69;20838539;28;20051;-62
2022/07/24 14:32:38;;;;;;;2.97;1.90;;;;;;;29.24;45.13;101362.09;20845152;28;20055;-63
2022/07/24 14:42:59;;;;;;;2.55;1.80;;;;;;;28.90;45.05;101352.34;20853936;28;20048;-61
2022/07/24 14:53:21;;;;;;;1.90;1.70;;;;;;;29.36;45.45;101350.53;20845355;28;20059;-63
2022/07/24 15:03:42;;;;;;;2.00;1.90;;;;;;;29.16;44.83;101347.00;20853942;28;20046;-62
2022/07/24 15:14:05;;;;;;;4.75;1.92;;;;;;;29.43;45.99;101332.53;20840570;28;20132;-62
2022/07/24 15:24:27;;;;;;;3.35;1.75;;;;;;;29.53;45.50;101330.28;20849802;28;20185;-62
2022/07/24 15:34:48;;;;;;;2.22;1.70;;;;;;;29.52;44.47;101315.19;20846536;28;20053;-62
2022/07/24 15:45:10;;;;;;;2.05;1.58;;;;;;;29.64;45.00;101318.88;20850405;28;20048;-62
2022/07/24 15:55:32;;;;;;;3.45;1.60;;;;;;;29.82;45.31;101295.66;20829881;28;20363;-62
2022/07/24 16:05:53;;;;;;;1.63;1.50;;;;;;;29.74;45.24;101300.44;20830351;28;20128;-62
2022/07/24 16:16:15;;;;;;;1.73;1.63;;;;;;;30.08;44.69;101284.00;20829413;28;20057;-61
2022/07/24 16:26:36;;;;;;;5.10;1.67;;;;;;;30.59;43.66;101275.66;20841058;28;20040;-62
2022/07/24 16:36:58;;;;;;;2.92;1.75;;;;;;;30.70;43.49;101258.81;20842741;28;20041;-62
2022/07/24 16:47:20;;;;;;;2.13;1.73;;;;;;;31.35;41.58;101262.84;20845711;28;20052;-63
2022/07/24 16:57:42;;;;;;;2.65;1.73;;;;;;;31.88;41.46;101240.44;20818963;28;20409;-60
2022/07/24 17:08:04;;;;;;;1.98;1.30;;;;;;;30.81;43.90;101230.34;20818579;28;20045;-63
2022/07/24 17:18:26;;;;;;;3.28;1.65;;;;;;;30.55;44.77;101239.47;20826505;28;20053;-62
2022/07/24 17:28:48;;;;;;;2.83;1.48;;;;;;;30.83;43.98;101220.16;20837449;28;20072;-62
2022/07/24 17:39:09;;;;;;;3.55;1.42;;;;;;;30.90;43.99;101215.56;20857067;28;20046;-62
2022/07/24 17:49:31;;;;;;;3.83;1.70;;;;;;;30.27;44.16;101223.88;20837313;28;20041;-62
2022/07/24 17:59:53;;;;;;;1.63;1.38;;;;;;;30.23;44.92;101211.91;20805742;28;20072;-62
2022/07/24 18:10:15;;;;;;;2.70;1.58;;;;;;;29.64;46.85;101204.09;20832368;28;20402;-62
2022/07/24 18:20:36;;;;;;;2.90;1.60;;;;;;;29.60;48.57;101200.19;20829882;28;20050;-62
2022/07/24 18:30:58;;;;;;;2.97;1.58;;;;;;;29.11;51.46;101204.41;20829700;28;20061;-62
2022/07/24 18:41:20;;;;;;;1.85;1.67;;;;;;;28.76;54.62;101204.81;20840279;28;20059;-61
2022/07/24 18:51:42;;;;;;;2.72;1.52;;;;;;;28.02;54.33;101195.19;20826569;28;20049;-62
2022/07/24 19:02:03;;;;;;;1.88;1.75;;;;;;;27.94;58.08;101199.94;20828530;28;20042;-62
2022/07/24 19:12:26;;;;;;;4.13;2.10;;;;;;;27.60;58.88;101191.94;20832394;28;20068;-60
2022/07/24 19:22:48;;;;;;;7.18;2.03;;;;;;;27.26;59.37;101196.50;20840477;28;20441;-61
2022/07/24 19:33:10;;;;;;;3.03;1.80;;;;;;;27.06;61.24;101193.72;20835929;28;20048;-61
2022/07/24 19:43:31;;;;;;;3.17;1.90;;;;;;;26.77;61.42;101191.19;20837340;28;20515;-62
2022/07/24 19:53:53;;;;;;;3.63;2.15;;;;;;;26.74;61.56;101191.56;20839207;28;20490;-61
2022/07/24 20:04:14;;;;;;;4.78;2.75;;;;;;;26.41;62.73;101195.81;20826303;28;20045;-61
2022/07/24 20:14:36;;;;;;;7.70;2.70;;;;;;;26.38;63.29;101180.09;20839337;28;20045;-61
2022/07/24 20:24:58;;;;;;;7.82;3.50;;;;;;;26.18;64.80;101190.81;20833495;28;20051;-61
2022/07/24 20:35:19;;;;;;;8.02;3.13;;;;;;;26.15;65.22;101183.19;20831024;28;20052;-59
2022/07/24 20:45:41;;;;;;;6.10;3.63;;;;;;;26.02;65.25;101172.34;20834961;28;20486;-60
2022/07/24 20:56:06;;;;;;;3.22;2.85;;;;;;;25.98;64.73;101157.69;20838555;28;20049;-61
2022/07/24 21:06:28;;;;;;;3.97;3.05;;;;;;;25.84;65.38;101142.53;20839066;28;20565;-60
2022/07/24 21:16:50;;;;;;;7.68;3.15;;;;;;;25.74;66.50;101136.66;20839801;28;20497;-59
2022/07/24 21:27:12;;;;;;;7.55;3.88;;;;;;;25.66;67.33;101120.72;20834775;28;20072;-60
2022/07/24 21:37:33;;;;;;;4.95;3.72;;;;;;;25.45;67.12;101099.34;20837688;28;20044;-64
2022/07/24 21:47:55;;;;;;;5.15;3.95;;;;;;;25.29;67.54;101091.53;20836352;28;20045;-59
2022/07/24 21:58:16;;;;;;;4.70;4.25;;;;;;;25.17;65.88;101082.34;20841684;28;20048;-59
2022/07/24 22:08:38;;;;;;;4.18;3.53;;;;;;;25.14;67.17;101074.72;20858923;28;20611;-59
2022/07/24 22:19:00;;;;;;;7.20;4.80;;;;;;;25.22;65.99;101071.13;20848184;28;20485;-61
2022/07/24 22:29:21;;;;;;;6.13;4.47;;;;;;;25.05;65.79;101049.09;20852503;28;20056;-61
2022/07/24 22:39:44;;;;;;;6.10;4.95;;;;;;;24.88;66.98;101041.47;20849818;28;20053;-59
2022/07/24 22:50:06;;;;;;;16.63;4.95;;;;;;;24.83;67.23;101034.03;20841412;28;20051;-60
2022/07/24 23:00:30;;;;;;;7.78;4.93;;;;;;;24.55;68.93;101027.69;20845637;28;20371;-60
2022/07/24 23:10:52;;;;;;;6.75;5.10;;;;;;;24.51;67.74;101023.72;20845260;28;20060;-59
2022/07/24 23:21:14;;;;;;;8.82;4.80;;;;;;;24.46;68.27;101010.13;20841422;28;20049;-59
2022/07/24 23:31:38;;;;;;;8.65;5.03;;;;;;;24.23;67.94;100994.34;20845670;28;20066;-59
2022/07/24 23:42:00;;;;;;;8.80;5.22;;;;;;;24.16;68.39;100990.78;20840644;28;20521;-59
2022/07/24 23:52:21;;;;;;;8.25;5.15;;;;;;;24.12;68.06;100978.81;20846942;28;20144;-60
